Time;durP1;ratioP1;P1;durP2;ratioP2;P2;SDS_P1;SDS_P2;PMS_P1;PMS_P2;Temp;Humidity;BMP_temperature;BMP_pressure;BME280_temperature;BME280_humidity;BME280_pressure;Samples;Min_cycle;Max_cycle;Signal;HPM_P1;HPM_P2
2022/03/27 00:00:59;;;;;;;10.63;9.33;;;;;;;;;;5068484;28;24419;-53
2022/03/27 00:03:24;;;;;;;10.07;9.07;;;;;;;;;;5067005;28;24988;-52
2022/03/27 00:05:50;;;;;;;11.00;9.90;;;;;;;;;;5073008;28;24430;-53
2022/03/27 00:08:15;;;;;;;11.55;10.30;;;;;;;;;;5078570;28;24414;-53
2022/03/27 00:13:24;;;;;;;11.38;10.18;;;;;;;;;;5066971;28;24484;-52
2022/03/27 00:15:49;;;;;;;11.00;9.80;;;;;;;;;;5065884;28;24889;-53
2022/03/27 00:18:15;;;;;;;12.57;10.40;;;;;;;;;;5066357;28;24796;-53
2022/03/27 00:20:40;;;;;;;11.83;10.43;;;;;;;;;;5072271;28;24490;-53
2022/03/27 00:23:05;;;;;;;11.13;9.93;;;;;;;;;;5072754;28;24979;-53
2022/03/27 00:25:30;;;;;;;10.82;9.70;;;;;;;;;;5066638;28;24418;-53
2022/03/27 00:27:55;;;;;;;11.10;9.90;;;;;;;;;;5066030;28;24503;-53
2022/03/27 00:30:21;;;;;;;10.30;9.30;;;;;;;;;;5066805;28;24445;-52
2022/03/27 00:32:46;;;;;;;10.70;9.60;;;;;;;;;;5068088;28;24818;-52
2022/03/27 00:35:11;;;;;;;10.32;9.32;;;;;;;;;;5065973;28;24453;-52
2022/03/27 00:37:36;;;;;;;9.98;8.95;;;;;;;;;;5073982;28;24433;-52
2022/03/27 00:40:02;;;;;;;11.30;10.20;;;;;;;;;;5080558;28;24775;-52
2022/03/27 00:42:27;;;;;;;10.98;9.68;;;;;;;;;;5077191;28;24418;-52
2022/03/27 00:44:53;;;;;;;10.10;9.00;;;;;;;;;;5065956;28;24436;-52
2022/03/27 00:47:18;;;;;;;10.48;9.00;;;;;;;;;;5065334;28;25167;-52
2022/03/27 00:49:43;;;;;;;10.63;9.50;;;;;;;;;;5067329;28;24430;-52
2022/03/27 00:52:08;;;;;;;11.40;10.20;;;;;;;;;;5082866;28;24558;-53
2022/03/27 00:54:33;;;;;;;10.43;9.32;;;;;;;;;;5080766;28;24403;-53
2022/03/27 00:56:58;;;;;;;10.07;9.07;;;;;;;;;;5088884;28;24417;-53
2022/03/27 00:59:23;;;;;;;9.53;8.63;;;;;;;;;;5077016;28;24491;-52
2022/03/27 01:01:49;;;;;;;10.57;9.48;;;;;;;;;;5083841;28;24418;-52
2022/03/27 01:04:14;;;;;;;10.25;9.25;;;;;;;;;;5070944;28;24422;-52
2022/03/27 01:06:44;;;;;;;10.60;9.38;;;;;;;;;;5071120;28;24498;-52
2022/03/27 01:11:55;;;;;;;11.30;9.75;;;;;;;;;;5070636;28;24418;-53
2022/03/27 01:14:30;;;;;;;11.53;10.33;;;;;;;;;;5073671;28;24443;-52
2022/03/27 01:16:57;;;;;;;11.13;9.93;;;;;;;;;;5088425;28;24430;-52
2022/03/27 01:19:22;;;;;;;11.18;9.75;;;;;;;;;;5074680;28;24438;-52
2022/03/27 01:21:48;;;;;;;12.00;10.33;;;;;;;;;;5069832;28;24410;-52
2022/03/27 01:24:14;;;;;;;11.40;10.13;;;;;;;;;;5071620;28;24840;-52
2022/03/27 01:26:40;;;;;;;11.57;10.05;;;;;;;;;;5070939;28;24421;-52
2022/03/27 01:29:06;;;;;;;11.17;9.97;;;;;;;;;;5071423;28;24442;-51
2022/03/27 01:31:31;;;;;;;11.07;10.02;;;;;;;;;;5070818;28;24425;-51
2022/03/27 01:33:57;;;;;;;11.37;10.27;;;;;;;;;;5073679;28;24429;-51
2022/03/27 01:36:22;;;;;;;11.20;10.10;;;;;;;;;;5073197;28;24425;-51
2022/03/27 01:38:47;;;;;;;11.33;10.13;;;;;;;;;;5070342;28;24418;-51
2022/03/27 01:41:12;;;;;;;11.52;10.30;;;;;;;;;;5079780;28;24414;-52
2022/03/27 01:43:38;;;;;;;13.52;11.40;;;;;;;;;;5087104;28;24422;-52
2022/03/27 01:46:03;;;;;;;13.27;11.20;;;;;;;;;;5076205;28;24419;-52
2022/03/27 01:48:28;;;;;;;17.90;14.30;;;;;;;;;;5071111;28;24439;-51
2022/03/27 01:50:57;;;;;;;15.67;13.80;;;;;;;;;;5081001;28;24937;-52
2022/03/27 01:53:22;;;;;;;14.98;12.50;;;;;;;;;;5081201;28;24984;-52
2022/03/27 01:55:47;;;;;;;14.40;11.70;;;;;;;;;;5076464;28;24476;-51
2022/03/27 01:58:12;;;;;;;12.57;11.27;;;;;;;;;;5069306;28;24417;-52
2022/03/27 02:00:37;;;;;;;11.50;10.30;;;;;;;;;;5068888;28;24411;-52
2022/03/27 02:03:03;;;;;;;12.00;10.32;;;;;;;;;;5070547;28;24498;-52
2022/03/27 02:05:29;;;;;;;11.30;10.20;;;;;;;;;;5079188;28;24446;-52
2022/03/27 02:07:54;;;;;;;12.80;10.85;;;;;;;;;;5071684;28;24506;-51
2022/03/27 02:10:19;;;;;;;11.80;10.27;;;;;;;;;;5066842;28;24980;-51
2022/03/27 02:12:45;;;;;;;12.30;11.00;;;;;;;;;;5068850;28;24430;-52
2022/03/27 02:15:10;;;;;;;12.77;11.37;;;;;;;;;;5085709;28;24974;-52
2022/03/27 02:17:38;;;;;;;13.63;12.17;;;;;;;;;;5070687;28;24418;-52
2022/03/27 02:20:04;;;;;;;14.07;11.32;;;;;;;;;;5068688;28;25062;-51
2022/03/27 02:22:29;;;;;;;12.20;10.90;;;;;;;;;;5077754;28;24496;-52
2022/03/27 02:24:54;;;;;;;12.27;10.65;;;;;;;;;;5078074;28;24823;-51
2022/03/27 02:27:19;;;;;;;12.53;10.97;;;;;;;;;;5072518;28;24469;-51
2022/03/27 02:29:45;;;;;;;12.57;11.27;;;;;;;;;;5085393;28;25114;-52
2022/03/27 02:32:10;;;;;;;12.65;10.85;;;;;;;;;;5077827;28;24430;-52
2022/03/27 02:34:35;;;;;;;12.20;11.00;;;;;;;;;;5068694;28;24410;-52
2022/03/27 02:37:01;;;;;;;12.80;10.47;;;;;;;;;;5068438;28;25048;-51
2022/03/27 02:39:26;;;;;;;11.63;10.43;;;;;;;;;;5078751;28;24454;-56
2022/03/27 02:41:51;;;;;;;12.20;10.20;;;;;;;;;;5071348;28;24410;-51
2022/03/27 02:44:16;;;;;;;12.27;10.98;;;;;;;;;;5068834;28;24417;-51
2022/03/27 02:46:42;;;;;;;13.90;11.50;;;;;;;;;;5071881;28;24452;-51
2022/03/27 02:49:07;;;;;;;12.20;10.43;;;;;;;;;;5079287;28;24811;-51
2022/03/27 02:51:32;;;;;;;11.60;10.40;;;;;;;;;;5083310;28;24425;-52
2022/03/27 02:53:57;;;;;;;13.00;10.30;;;;;;;;;;5080521;28;24446;-51
2022/03/27 02:56:22;;;;;;;11.73;10.23;;;;;;;;;;5086197;28;24501;-52
2022/03/27 02:58:47;;;;;;;12.98;10.70;;;;;;;;;;5080868;28;24403;-53
2022/03/27 03:01:13;;;;;;;11.87;10.57;;;;;;;;;;5075999;28;24502;-52
2022/03/27 03:03:38;;;;;;;11.17;10.00;;;;;;;;;;5075061;28;24862;-52
2022/03/27 03:06:05;;;;;;;11.20;10.00;;;;;;;;;;5070983;28;24468;-52
2022/03/27 03:08:31;;;;;;;11.48;10.27;;;;;;;;;;5085434;28;24493;-51
2022/03/27 03:10:56;;;;;;;11.53;10.33;;;;;;;;;;5083761;28;24494;-51
2022/03/27 03:13:21;;;;;;;11.57;10.37;;;;;;;;;;5075111;28;24518;-52
2022/03/27 03:15:47;;;;;;;12.90;10.53;;;;;;;;;;5082798;28;24506;-52
2022/03/27 03:18:12;;;;;;;11.53;10.27;;;;;;;;;;5074778;28;24413;-51
2022/03/27 03:20:38;;;;;;;13.57;11.10;;;;;;;;;;5069790;28;25001;-52
2022/03/27 03:23:03;;;;;;;11.45;10.25;;;;;;;;;;5070347;28;24430;-52
2022/03/27 03:25:29;;;;;;;11.40;10.20;;;;;;;;;;5083163;28;25035;-52
2022/03/27 03:27:54;;;;;;;11.90;9.70;;;;;;;;;;5078818;28;24554;-52
2022/03/27 03:30:20;;;;;;;11.10;9.90;;;;;;;;;;5070169;28;24431;-52
2022/03/27 03:32:45;;;;;;;12.30;11.00;;;;;;;;;;5070796;28;25016;-52
2022/03/27 03:35:11;;;;;;;11.67;10.30;;;;;;;;;;5074632;28;24458;-51
2022/03/27 03:37:36;;;;;;;11.10;10.00;;;;;;;;;;5068266;28;24414;-51
2022/03/27 03:40:02;;;;;;;11.13;9.80;;;;;;;;;;5084052;28;24845;-52
2022/03/27 03:42:28;;;;;;;11.15;10.00;;;;;;;;;;5073122;28;24472;-51
2022/03/27 03:44:53;;;;;;;11.63;10.10;;;;;;;;;;5067329;28;24415;-51
2022/03/27 03:47:19;;;;;;;12.05;10.70;;;;;;;;;;5079145;28;24512;-52
2022/03/27 03:49:44;;;;;;;11.35;9.70;;;;;;;;;;5066530;28;25173;-52
2022/03/27 03:52:09;;;;;;;13.90;10.60;;;;;;;;;;5079542;28;24426;-51
2022/03/27 03:54:35;;;;;;;12.10;10.50;;;;;;;;;;5070404;28;24505;-52
2022/03/27 03:57:04;;;;;;;12.33;10.40;;;;;;;;;;5083460;28;24951;-52
2022/03/27 03:59:29;;;;;;;13.38;10.70;;;;;;;;;;5066990;28;24909;-51
2022/03/27 04:01:54;;;;;;;11.83;10.60;;;;;;;;;;5066817;28;24513;-51
2022/03/27 04:04:19;;;;;;;12.63;11.10;;;;;;;;;;5067719;28;24421;-51
2022/03/27 04:06:44;;;;;;;11.65;10.13;;;;;;;;;;5069073;28;24583;-52
2022/03/27 04:09:10;;;;;;;11.80;10.00;;;;;;;;;;5077102;28;24431;-51
2022/03/27 04:11:35;;;;;;;13.60;10.90;;;;;;;;;;5075214;28;24426;-52
2022/03/27 04:14:00;;;;;;;10.83;9.73;;;;;;;;;;5066663;28;24434;-51
2022/03/27 04:16:26;;;;;;;13.88;10.93;;;;;;;;;;5069259;28;24413;-51
2022/03/27 04:18:51;;;;;;;13.30;10.90;;;;;;;;;;5076609;28;24541;-51
2022/03/27 04:21:16;;;;;;;12.60;10.67;;;;;;;;;;5066953;28;24417;-51
2022/03/27 04:23:42;;;;;;;13.25;10.70;;;;;;;;;;5068194;28;24421;-52
2022/03/27 04:26:07;;;;;;;11.23;10.13;;;;;;;;;;5075221;28;24561;-52
2022/03/27 04:28:32;;;;;;;11.90;10.30;;;;;;;;;;5067059;28;24529;-52
2022/03/27 04:30:58;;;;;;;11.40;10.00;;;;;;;;;;5069101;28;24418;-52
2022/03/27 04:33:23;;;;;;;12.80;10.57;;;;;;;;;;5084900;28;24441;-51
2022/03/27 04:35:48;;;;;;;11.70;10.50;;;;;;;;;;5072605;28;24843;-51
2022/03/27 04:38:14;;;;;;;12.10;10.07;;;;;;;;;;5076139;28;25034;-51
2022/03/27 04:40:39;;;;;;;12.10;10.90;;;;;;;;;;5070737;28;24509;-52
2022/03/27 04:43:05;;;;;;;12.82;10.70;;;;;;;;;;5067265;28;24522;-51
2022/03/27 04:45:30;;;;;;;12.65;10.73;;;;;;;;;;5066571;28;24492;-51
2022/03/27 04:47:55;;;;;;;12.15;10.20;;;;;;;;;;5066651;28;24967;-51
2022/03/27 04:50:21;;;;;;;11.60;10.40;;;;;;;;;;5072839;28;24411;-52
2022/03/27 04:52:46;;;;;;;12.27;10.47;;;;;;;;;;5064745;28;24492;-52
2022/03/27 04:55:11;;;;;;;12.10;10.80;;;;;;;;;;5068639;28;24433;-51
2022/03/27 04:57:38;;;;;;;14.00;11.40;;;;;;;;;;5072653;28;24709;-51
2022/03/27 05:00:04;;;;;;;13.90;11.00;;;;;;;;;;5084053;28;24414;-52
2022/03/27 05:02:29;;;;;;;11.63;9.90;;;;;;;;;;5075774;28;24415;-51
2022/03/27 05:04:55;;;;;;;14.02;11.10;;;;;;;;;;5073695;28;24484;-51
2022/03/27 05:07:20;;;;;;;13.53;10.57;;;;;;;;;;5066077;28;24518;-51
2022/03/27 05:09:45;;;;;;;14.18;11.43;;;;;;;;;;5068466;28;24828;-52
2022/03/27 05:12:10;;;;;;;12.13;10.85;;;;;;;;;;5066656;28;24896;-51
2022/03/27 05:14:35;;;;;;;11.63;10.43;;;;;;;;;;5068557;28;24399;-51
2022/03/27 05:17:03;;;;;;;12.38;10.77;;;;;;;;;;5066285;28;24415;-52
2022/03/27 05:19:29;;;;;;;12.48;9.90;;;;;;;;;;5070009;28;24499;-52
2022/03/27 05:21:54;;;;;;;11.57;9.90;;;;;;;;;;5066461;28;24424;-52
2022/03/27 05:24:19;;;;;;;13.23;10.70;;;;;;;;;;5066817;28;24415;-52
2022/03/27 05:26:44;;;;;;;12.33;10.67;;;;;;;;;;5066199;28;24418;-52
2022/03/27 05:29:10;;;;;;;14.10;11.27;;;;;;;;;;5072721;28;24435;-52
2022/03/27 05:31:35;;;;;;;13.18;11.27;;;;;;;;;;5066518;28;24453;-51
2022/03/27 05:34:00;;;;;;;13.87;11.67;;;;;;;;;;5074260;28;24560;-50
2022/03/27 05:36:26;;;;;;;13.67;10.90;;;;;;;;;;5077075;28;24418;-52
2022/03/27 05:38:51;;;;;;;14.45;11.30;;;;;;;;;;5067106;28;24445;-52
2022/03/27 05:41:16;;;;;;;14.47;11.13;;;;;;;;;;5064346;28;24806;-52
2022/03/27 05:43:42;;;;;;;13.20;11.35;;;;;;;;;;5069644;28;24491;-52
2022/03/27 05:46:07;;;;;;;12.55;11.05;;;;;;;;;;5069489;28;24458;-52
2022/03/27 05:48:32;;;;;;;11.50;10.30;;;;;;;;;;5076813;28;24936;-52
2022/03/27 05:50:57;;;;;;;12.27;10.10;;;;;;;;;;5082451;28;24591;-52
2022/03/27 05:53:23;;;;;;;12.60;11.00;;;;;;;;;;5077605;28;24571;-52
2022/03/27 05:55:48;;;;;;;11.15;9.90;;;;;;;;;;5070482;28;24439;-52
2022/03/27 05:58:14;;;;;;;11.77;10.57;;;;;;;;;;5067043;28;24427;-52
2022/03/27 06:00:39;;;;;;;12.83;10.43;;;;;;;;;;5070016;28;25034;-53
2022/03/27 06:03:04;;;;;;;11.40;10.02;;;;;;;;;;5073524;28;24828;-53
2022/03/27 06:05:29;;;;;;;13.33;10.53;;;;;;;;;;5083872;28;24446;-52
2022/03/27 06:07:56;;;;;;;11.15;9.52;;;;;;;;;;5069097;28;24946;-52
2022/03/27 06:10:22;;;;;;;11.30;9.90;;;;;;;;;;5075351;28;25030;-53
2022/03/27 06:12:48;;;;;;;12.10;9.20;;;;;;;;;;5096057;28;24435;-53
2022/03/27 06:15:14;;;;;;;11.47;9.70;;;;;;;;;;5080287;28;24425;-52
2022/03/27 06:17:40;;;;;;;11.05;9.20;;;;;;;;;;5078863;28;24533;-52
2022/03/27 06:20:05;;;;;;;10.02;8.93;;;;;;;;;;5078599;28;25162;-52
2022/03/27 06:22:30;;;;;;;11.60;10.40;;;;;;;;;;5076934;28;24414;-52
2022/03/27 06:24:55;;;;;;;11.77;10.27;;;;;;;;;;5074297;28;24483;-52
2022/03/27 06:27:21;;;;;;;10.65;9.55;;;;;;;;;;5066621;28;24546;-52
2022/03/27 06:29:46;;;;;;;11.30;9.52;;;;;;;;;;5068674;28;24880;-52
2022/03/27 06:32:11;;;;;;;10.90;9.70;;;;;;;;;;5073778;28;24468;-52
2022/03/27 06:34:36;;;;;;;10.82;9.73;;;;;;;;;;5074818;28;24521;-52
2022/03/27 06:37:02;;;;;;;11.00;9.90;;;;;;;;;;5065307;28;24940;-53
2022/03/27 06:39:27;;;;;;;11.25;9.60;;;;;;;;;;5066935;28;24469;-52
2022/03/27 06:41:52;;;;;;;11.57;10.13;;;;;;;;;;5073943;28;25140;-52
2022/03/27 06:44:19;;;;;;;10.33;9.23;;;;;;;;;;5074659;28;24458;-53
2022/03/27 06:46:44;;;;;;;11.70;9.63;;;;;;;;;;5067102;28;24609;-52
2022/03/27 06:49:09;;;;;;;10.70;9.47;;;;;;;;;;5068740;28;24557;-53
2022/03/27 06:51:35;;;;;;;11.60;9.63;;;;;;;;;;5069369;28;24441;-53
2022/03/27 06:54:00;;;;;;;11.60;9.27;;;;;;;;;;5069980;28;25017;-52
2022/03/27 06:56:26;;;;;;;10.87;9.77;;;;;;;;;;5069409;28;24424;-53
2022/03/27 06:58:51;;;;;;;10.40;9.30;;;;;;;;;;5078514;28;24422;-53
2022/03/27 07:04:00;;;;;;;11.50;9.95;;;;;;;;;;5082460;28;24429;-52
2022/03/27 07:06:25;;;;;;;11.50;10.30;;;;;;;;;;5066585;28;24442;-52
2022/03/27 07:08:50;;;;;;;11.15;10.00;;;;;;;;;;5064652;28;24513;-52
2022/03/27 07:11:15;;;;;;;11.37;10.17;;;;;;;;;;5080129;28;24475;-53
2022/03/27 07:13:41;;;;;;;11.60;9.30;;;;;;;;;;5072167;28;24514;-53
2022/03/27 07:16:06;;;;;;;11.30;9.88;;;;;;;;;;5083616;28;24472;-52
2022/03/27 07:18:31;;;;;;;11.07;9.97;;;;;;;;;;5066237;28;24888;-52
2022/03/27 07:20:57;;;;;;;11.88;10.02;;;;;;;;;;5065761;28;24415;-53
2022/03/27 07:23:23;;;;;;;11.75;10.55;;;;;;;;;;5065069;28;24496;-53
2022/03/27 07:25:50;;;;;;;11.93;10.63;;;;;;;;;;5075801;28;24468;-52
2022/03/27 07:28:16;;;;;;;11.70;10.48;;;;;;;;;;5065268;28;24447;-53
2022/03/27 07:30:41;;;;;;;12.20;10.90;;;;;;;;;;5066614;28;24426;-53
2022/03/27 07:33:07;;;;;;;12.55;11.25;;;;;;;;;;5064149;28;25040;-53
2022/03/27 07:35:32;;;;;;;13.03;11.37;;;;;;;;;;5064715;28;24498;-53
2022/03/27 07:37:58;;;;;;;14.37;11.90;;;;;;;;;;5075041;28;24465;-53
2022/03/27 07:40:23;;;;;;;15.75;12.80;;;;;;;;;;5070613;28;24494;-52
2022/03/27 07:42:50;;;;;;;12.98;11.57;;;;;;;;;;5063945;28;24505;-53
2022/03/27 07:45:19;;;;;;;13.02;11.50;;;;;;;;;;5068451;28;24414;-53
2022/03/27 07:47:44;;;;;;;12.20;11.00;;;;;;;;;;5070013;28;24917;-52
2022/03/27 07:50:10;;;;;;;13.23;10.75;;;;;;;;;;5069390;28;24479;-52
2022/03/27 07:52:35;;;;;;;12.57;10.73;;;;;;;;;;5070130;28;24492;-52
2022/03/27 07:55:00;;;;;;;13.70;11.33;;;;;;;;;;5067183;28;24491;-53
2022/03/27 07:57:26;;;;;;;12.50;11.13;;;;;;;;;;5071390;28;24518;-53
2022/03/27 07:59:51;;;;;;;11.45;10.25;;;;;;;;;;5070007;28;24832;-54
2022/03/27 08:02:16;;;;;;;12.77;11.10;;;;;;;;;;5074315;28;24446;-53
2022/03/27 08:04:42;;;;;;;11.35;10.15;;;;;;;;;;5067268;28;24407;-52
2022/03/27 08:07:07;;;;;;;11.40;10.20;;;;;;;;;;5069900;28;24433;-53
2022/03/27 08:09:32;;;;;;;11.88;10.48;;;;;;;;;;5064837;28;25030;-52
2022/03/27 08:11:57;;;;;;;10.90;9.70;;;;;;;;;;5080056;28;24827;-52
2022/03/27 08:14:27;;;;;;;11.10;9.67;;;;;;;;;;5071619;28;24542;-53
2022/03/27 08:16:52;;;;;;;10.93;9.50;;;;;;;;;;5066035;28;25000;-53
2022/03/27 08:19:18;;;;;;;11.33;9.80;;;;;;;;;;5064972;28;24460;-53
2022/03/27 08:21:44;;;;;;;11.15;9.95;;;;;;;;;;5080230;28;24601;-53
2022/03/27 08:24:09;;;;;;;10.90;9.80;;;;;;;;;;5070581;28;24480;-53
2022/03/27 08:29:18;;;;;;;11.10;10.00;;;;;;;;;;5078288;28;24437;-53
2022/03/27 08:31:43;;;;;;;10.80;9.70;;;;;;;;;;5069960;28;24420;-53
2022/03/27 08:34:09;;;;;;;9.87;8.80;;;;;;;;;;5063760;28;24581;-53
2022/03/27 08:36:34;;;;;;;9.90;9.00;;;;;;;;;;5069609;28;24831;-53
2022/03/27 08:38:59;;;;;;;10.60;9.50;;;;;;;;;;5078591;28;24399;-53
2022/03/27 08:41:24;;;;;;;10.50;9.40;;;;;;;;;;5085161;28;24458;-53
2022/03/27 08:43:58;;;;;;;11.52;9.15;;;;;;;;;;5079879;28;24433;-52
2022/03/27 08:46:23;;;;;;;9.13;8.23;;;;;;;;;;5067754;28;24428;-52
2022/03/27 08:48:50;;;;;;;8.68;7.85;;;;;;;;;;5079486;28;24509;-53
2022/03/27 08:51:24;;;;;;;8.70;7.80;;;;;;;;;;5060970;28;24692;-53
2022/03/27 08:53:59;;;;;;;8.98;8.07;;;;;;;;;;5080296;28;24791;-53
2022/03/27 08:56:24;;;;;;;10.37;9.13;;;;;;;;;;5074460;28;24419;-53
2022/03/27 08:58:50;;;;;;;10.63;9.20;;;;;;;;;;5066555;28;24418;-52
2022/03/27 09:01:17;;;;;;;11.20;10.10;;;;;;;;;;5069098;28;24407;-52
2022/03/27 09:03:42;;;;;;;10.32;9.00;;;;;;;;;;5071695;28;24979;-52
2022/03/27 09:06:08;;;;;;;12.40;10.40;;;;;;;;;;5080238;28;24468;-53
2022/03/27 09:08:34;;;;;;;10.07;9.07;;;;;;;;;;5074379;28;24592;-53
2022/03/27 09:11:01;;;;;;;11.73;9.77;;;;;;;;;;5075953;28;24453;-53
2022/03/27 09:13:26;;;;;;;9.85;8.85;;;;;;;;;;5067244;28;24434;-52
2022/03/27 09:16:00;;;;;;;10.27;9.27;;;;;;;;;;5066819;28;24429;-53
2022/03/27 09:18:25;;;;;;;10.10;8.75;;;;;;;;;;5078036;28;24449;-53
2022/03/27 09:20:52;;;;;;;10.13;9.10;;;;;;;;;;5073722;28;24955;-52
2022/03/27 09:23:19;;;;;;;9.40;8.50;;;;;;;;;;5078266;28;24437;-52
2022/03/27 09:25:51;;;;;;;9.77;8.77;;;;;;;;;;5070131;28;24483;-52
2022/03/27 09:28:23;;;;;;;10.20;9.20;;;;;;;;;;5086484;28;24538;-53
2022/03/27 09:30:48;;;;;;;10.75;9.68;;;;;;;;;;5074324;28;24454;-53
2022/03/27 09:33:28;;;;;;;9.50;8.60;;;;;;;;;;5074247;28;24492;-53
2022/03/27 09:36:03;;;;;;;9.10;8.20;;;;;;;;;;5075296;28;24417;-54
2022/03/27 09:38:28;;;;;;;9.00;8.15;;;;;;;;;;5085097;28;24531;-54
2022/03/27 09:40:53;;;;;;;9.48;8.57;;;;;;;;;;5080247;28;24547;-53
2022/03/27 09:43:21;;;;;;;8.27;7.47;;;;;;;;;;5072942;28;24417;-53
2022/03/27 09:45:54;;;;;;;9.20;8.30;;;;;;;;;;5076621;28;24467;-54
2022/03/27 09:48:19;;;;;;;10.88;9.82;;;;;;;;;;5077019;28;24442;-53
2022/03/27 09:50:44;;;;;;;10.13;9.13;;;;;;;;;;5084802;28;24510;-54
2022/03/27 09:53:19;;;;;;;10.40;9.40;;;;;;;;;;5073983;28;25006;-53
2022/03/27 09:55:44;;;;;;;10.10;9.20;;;;;;;;;;5084699;28;24414;-54
2022/03/27 09:58:10;;;;;;;8.93;8.07;;;;;;;;;;5078689;28;24974;-54
2022/03/27 10:00:36;;;;;;;8.88;7.97;;;;;;;;;;5081383;28;24438;-54
2022/03/27 10:03:08;;;;;;;8.63;7.60;;;;;;;;;;5072702;28;24426;-54
2022/03/27 10:05:33;;;;;;;8.70;7.90;;;;;;;;;;5077718;28;24423;-53
2022/03/27 10:07:58;;;;;;;8.57;7.67;;;;;;;;;;5068407;28;24429;-54
2022/03/27 10:10:25;;;;;;;9.40;8.50;;;;;;;;;;5083934;28;24618;-54
2022/03/27 10:12:51;;;;;;;7.70;7.00;;;;;;;;;;5074226;28;24425;-53
2022/03/27 10:15:17;;;;;;;8.10;7.40;;;;;;;;;;5077887;28;24425;-54
2022/03/27 10:17:46;;;;;;;7.88;7.13;;;;;;;;;;5072120;28;24421;-53
2022/03/27 10:20:13;;;;;;;8.80;8.00;;;;;;;;;;5071387;28;24418;-53
2022/03/27 10:22:48;;;;;;;9.07;8.18;;;;;;;;;;5069594;28;24844;-54
2022/03/27 10:25:14;;;;;;;8.70;7.90;;;;;;;;;;5069683;28;24509;-52
2022/03/27 10:27:41;;;;;;;8.43;7.63;;;;;;;;;;5069278;28;24457;-53
2022/03/27 10:30:07;;;;;;;8.15;7.35;;;;;;;;;;5073262;28;24503;-52
2022/03/27 10:32:33;;;;;;;7.45;6.75;;;;;;;;;;5073162;28;24441;-52
2022/03/27 10:35:14;;;;;;;8.23;7.43;;;;;;;;;;5074672;28;24413;-52
2022/03/27 10:37:44;;;;;;;7.88;7.07;;;;;;;;;;5072859;28;24414;-52
2022/03/27 10:40:19;;;;;;;8.82;8.02;;;;;;;;;;5068826;28;24402;-52
2022/03/27 10:42:54;;;;;;;8.00;7.20;;;;;;;;;;5072098;28;24422;-52
2022/03/27 10:45:20;;;;;;;7.80;7.10;;;;;;;;;;5079963;28;25026;-52
2022/03/27 10:48:08;;;;;;;8.10;7.40;;;;;;;;;;5082810;28;24433;-51
2022/03/27 10:50:45;;;;;;;9.30;8.40;;;;;;;;;;5079774;28;24499;-52
2022/03/27 10:53:10;;;;;;;7.65;6.95;;;;;;;;;;5072026;28;24435;-52
2022/03/27 10:55:37;;;;;;;8.53;7.73;;;;;;;;;;5072787;28;24753;-52
2022/03/27 10:58:23;;;;;;;8.63;7.80;;;;;;;;;;5077438;28;24508;-52
2022/03/27 11:00:48;;;;;;;8.38;7.38;;;;;;;;;;5073383;28;24437;-51
2022/03/27 11:03:33;;;;;;;8.30;7.50;;;;;;;;;;5076947;28;24895;-52
2022/03/27 11:05:58;;;;;;;9.10;8.20;;;;;;;;;;5070764;28;24446;-52
2022/03/27 11:08:25;;;;;;;7.80;7.10;;;;;;;;;;5071796;28;24488;-53
2022/03/27 11:10:55;;;;;;;7.35;6.57;;;;;;;;;;5073137;28;24959;-52
2022/03/27 11:13:32;;;;;;;8.40;7.60;;;;;;;;;;5070110;28;24442;-53
2022/03/27 11:16:01;;;;;;;8.73;7.60;;;;;;;;;;5072886;28;24415;-53
2022/03/27 11:18:35;;;;;;;6.88;6.28;;;;;;;;;;5069702;28;24423;-53
2022/03/27 11:21:00;;;;;;;7.60;6.80;;;;;;;;;;5075172;28;24503;-53
2022/03/27 11:23:25;;;;;;;6.20;5.60;;;;;;;;;;5070999;28;24468;-53
2022/03/27 11:25:51;;;;;;;7.63;5.60;;;;;;;;;;5072602;28;24426;-53
2022/03/27 11:28:17;;;;;;;6.80;6.10;;;;;;;;;;5066619;28;24451;-52
2022/03/27 11:30:48;;;;;;;6.72;6.13;;;;;;;;;;5067233;28;24430;-53
2022/03/27 11:33:14;;;;;;;6.43;5.82;;;;;;;;;;5075774;28;24785;-53
2022/03/27 11:35:42;;;;;;;5.20;4.70;;;;;;;;;;5071653;28;24481;-53
2022/03/27 11:38:20;;;;;;;4.90;4.50;;;;;;;;;;5071983;28;24511;-52
2022/03/27 11:40:45;;;;;;;5.50;4.68;;;;;;;;;;5075620;28;24777;-53
2022/03/27 11:43:30;;;;;;;5.23;4.73;;;;;;;;;;5073031;28;24485;-53
2022/03/27 11:45:56;;;;;;;4.63;4.22;;;;;;;;;;5073786;28;24426;-53
2022/03/27 11:48:21;;;;;;;5.10;4.60;;;;;;;;;;5070973;28;24414;-52
2022/03/27 11:50:47;;;;;;;5.20;4.40;;;;;;;;;;5069336;28;24831;-52
2022/03/27 11:53:12;;;;;;;4.43;4.03;;;;;;;;;;5075756;28;24429;-53
2022/03/27 11:55:39;;;;;;;4.53;4.13;;;;;;;;;;5074972;28;24820;-53
2022/03/27 11:58:05;;;;;;;4.10;3.80;;;;;;;;;;5066960;28;24983;-53
2022/03/27 12:00:31;;;;;;;5.43;4.93;;;;;;;;;;5061096;28;24419;-53
2022/03/27 12:02:57;;;;;;;5.47;4.97;;;;;;;;;;5071615;28;24473;-53
2022/03/27 12:05:31;;;;;;;4.82;4.43;;;;;;;;;;5075033;28;24951;-53
2022/03/27 12:07:56;;;;;;;3.90;3.50;;;;;;;;;;5071165;28;24423;-53
2022/03/27 12:10:22;;;;;;;3.70;3.40;;;;;;;;;;5072606;28;24411;-52
2022/03/27 12:12:57;;;;;;;4.60;4.30;;;;;;;;;;5078268;28;24434;-53
2022/03/27 12:15:23;;;;;;;4.95;4.55;;;;;;;;;;5074345;28;24456;-52
2022/03/27 12:17:48;;;;;;;5.63;4.17;;;;;;;;;;5080768;28;24415;-53
2022/03/27 12:20:15;;;;;;;4.57;3.90;;;;;;;;;;5073012;28;24406;-52
2022/03/27 12:22:41;;;;;;;4.35;3.95;;;;;;;;;;5075800;28;24544;-52
2022/03/27 12:25:11;;;;;;;4.07;3.78;;;;;;;;;;5065190;28;24430;-52
2022/03/27 12:30:20;;;;;;;5.90;4.70;;;;;;;;;;5071869;28;24453;-53
2022/03/27 12:32:45;;;;;;;4.90;4.50;;;;;;;;;;5062894;28;24964;-53
2022/03/27 12:35:11;;;;;;;5.00;4.50;;;;;;;;;;5073725;28;24986;-53
2022/03/27 12:37:42;;;;;;;4.30;3.90;;;;;;;;;;5085886;28;25025;-53
2022/03/27 12:40:09;;;;;;;5.65;4.10;;;;;;;;;;5063471;28;24792;-53
2022/03/27 12:42:43;;;;;;;3.88;3.47;;;;;;;;;;5069057;28;24961;-53
2022/03/27 12:45:14;;;;;;;3.40;3.10;;;;;;;;;;5071250;28;24495;-53
2022/03/27 12:47:41;;;;;;;3.17;2.88;;;;;;;;;;5067590;28;24558;-53
2022/03/27 12:50:08;;;;;;;2.45;2.25;;;;;;;;;;5066209;28;24418;-52
2022/03/27 12:52:33;;;;;;;2.80;2.60;;;;;;;;;;5061471;28;24422;-53
2022/03/27 12:55:00;;;;;;;3.63;3.33;;;;;;;;;;5072139;28;24958;-52
2022/03/27 12:57:45;;;;;;;3.63;3.33;;;;;;;;;;5074968;28;24406;-52
2022/03/27 13:00:13;;;;;;;5.45;3.22;;;;;;;;;;5075224;28;24447;-52
2022/03/27 13:02:39;;;;;;;3.25;2.90;;;;;;;;;;5080701;28;24997;-52
2022/03/27 13:05:04;;;;;;;2.80;2.60;;;;;;;;;;5080577;28;24426;-54
2022/03/27 13:07:59;;;;;;;2.90;2.70;;;;;;;;;;5074032;28;24487;-52
2022/03/27 13:10:26;;;;;;;3.40;3.00;;;;;;;;;;5067419;28;24528;-52
2022/03/27 13:12:58;;;;;;;3.47;3.17;;;;;;;;;;5072348;28;24492;-52
2022/03/27 13:15:36;;;;;;;3.70;3.40;;;;;;;;;;5069674;28;24422;-52
2022/03/27 13:18:08;;;;;;;4.20;3.80;;;;;;;;;;5068530;28;24781;-53
2022/03/27 13:20:34;;;;;;;4.50;3.85;;;;;;;;;;5076221;28;24952;-52
2022/03/27 13:22:59;;;;;;;3.80;3.40;;;;;;;;;;5071345;28;24487;-52
2022/03/27 13:25:24;;;;;;;3.80;3.50;;;;;;;;;;5073362;28;24422;-53
2022/03/27 13:27:49;;;;;;;3.90;3.60;;;;;;;;;;5067511;28;24439;-52
2022/03/27 13:30:15;;;;;;;3.30;2.95;;;;;;;;;;5076361;28;24487;-52
2022/03/27 13:32:40;;;;;;;3.40;3.10;;;;;;;;;;5075500;28;24466;-51
2022/03/27 13:35:06;;;;;;;3.50;3.20;;;;;;;;;;5068849;28;24761;-52
2022/03/27 13:37:31;;;;;;;5.63;3.53;;;;;;;;;;5065571;28;24499;-53
2022/03/27 13:39:56;;;;;;;3.97;3.50;;;;;;;;;;5078217;28;24414;-52
2022/03/27 13:45:05;;;;;;;3.75;3.00;;;;;;;;;;5071553;28;24459;-52
2022/03/27 13:47:30;;;;;;;3.00;2.80;;;;;;;;;;5076297;28;25022;-52
2022/03/27 13:49:56;;;;;;;3.40;2.50;;;;;;;;;;5087459;28;24410;-52
2022/03/27 13:52:21;;;;;;;3.00;2.70;;;;;;;;;;5080432;28;25267;-51
2022/03/27 13:54:46;;;;;;;3.90;3.20;;;;;;;;;;5085163;28;24821;-52
2022/03/27 13:57:12;;;;;;;3.30;3.00;;;;;;;;;;5069748;28;24461;-52
2022/03/27 13:59:37;;;;;;;3.40;3.10;;;;;;;;;;5071761;28;24536;-51
2022/03/27 14:02:03;;;;;;;3.90;3.50;;;;;;;;;;5076417;28;24426;-52
2022/03/27 14:04:28;;;;;;;4.10;3.80;;;;;;;;;;5077639;28;24418;-52
2022/03/27 14:06:53;;;;;;;4.35;3.95;;;;;;;;;;5083535;28;25310;-52
2022/03/27 14:09:18;;;;;;;3.93;3.60;;;;;;;;;;5071615;28;24967;-52
2022/03/27 14:11:44;;;;;;;3.50;3.13;;;;;;;;;;5073168;28;24423;-52
2022/03/27 14:14:09;;;;;;;3.87;3.20;;;;;;;;;;5075639;28;24476;-53
2022/03/27 14:16:35;;;;;;;3.70;3.40;;;;;;;;;;5078630;28;24406;-51
2022/03/27 14:19:00;;;;;;;4.55;3.70;;;;;;;;;;5084359;28;24428;-52
2022/03/27 14:21:26;;;;;;;4.60;4.20;;;;;;;;;;5082133;28;24425;-51
2022/03/27 14:23:51;;;;;;;4.60;4.20;;;;;;;;;;5069568;28;24429;-52
2022/03/27 14:26:17;;;;;;;4.30;3.90;;;;;;;;;;5072182;28;24773;-52
2022/03/27 14:28:42;;;;;;;4.30;3.90;;;;;;;;;;5084911;28;24438;-52
2022/03/27 14:31:07;;;;;;;4.30;3.90;;;;;;;;;;5072560;28;24463;-52
2022/03/27 14:33:33;;;;;;;4.97;4.57;;;;;;;;;;5086388;28;24436;-52
2022/03/27 14:35:58;;;;;;;5.83;4.83;;;;;;;;;;5080990;28;24460;-52
2022/03/27 14:38:24;;;;;;;4.43;4.03;;;;;;;;;;5071203;28;24468;-52
2022/03/27 14:40:49;;;;;;;5.20;4.47;;;;;;;;;;5069810;28;24415;-52